createdAt,value
2023-03-27T00:02:23.913Z,3.13
2023-03-27T00:07:26.716Z,3.25
2023-03-27T00:12:32.265Z,3.88
2023-03-27T00:17:35.389Z,3.57
2023-03-27T00:22:42.461Z,3.80
2023-03-27T00:27:50.480Z,3.38
2023-03-27T00:32:57.025Z,3.28
2023-03-27T00:38:00.039Z,3.25
2023-03-27T00:43:03.092Z,3.50
2023-03-27T00:48:08.142Z,3.60
2023-03-27T00:53:14.761Z,3.40
2023-03-27T00:58:24.270Z,3.35
2023-03-27T01:03:35.365Z,3.20
2023-03-27T01:08:43.700Z,3.10
2023-03-27T01:14:15.374Z,3.40
2023-03-27T01:19:42.176Z,3.17
2023-03-27T01:25:16.202Z,2.60
2023-03-27T01:30:29.287Z,2.90
2023-03-27T01:36:04.589Z,2.63
2023-03-27T01:41:34.960Z,2.65
2023-03-27T01:46:37.921Z,2.53
2023-03-27T01:51:45.202Z,2.40
2023-03-27T01:56:53.986Z,2.20
2023-03-27T02:02:05.169Z,2.22
2023-03-27T02:07:13.106Z,2.03
2023-03-27T02:12:24.882Z,2.40
2023-03-27T02:17:28.831Z,1.95
2023-03-27T02:22:37.937Z,2.22
2023-03-27T02:27:49.904Z,2.22
2023-03-27T02:32:54.060Z,2.30
2023-03-27T02:38:24.016Z,1.92
2023-03-27T02:43:38.066Z,2.33
2023-03-27T02:48:52.233Z,2.03
2023-03-27T02:53:58.570Z,2.22
2023-03-27T02:59:13.358Z,2.00
2023-03-27T03:04:22.529Z,1.92
2023-03-27T03:09:44.614Z,2.30
2023-03-27T03:14:47.856Z,1.75
2023-03-27T03:19:50.556Z,1.90
2023-03-27T03:24:53.751Z,2.00
2023-03-27T03:30:01.675Z,1.80
2023-03-27T03:35:06.851Z,2.53
2023-03-27T03:40:14.127Z,2.00
2023-03-27T03:45:22.811Z,1.92
2023-03-27T03:50:25.653Z,1.95
2023-03-27T03:55:28.472Z,1.70
2023-03-27T04:00:38.439Z,1.75
2023-03-27T04:05:45.787Z,2.15
2023-03-27T04:10:48.944Z,2.20
2023-03-27T04:16:14.190Z,2.63
2023-03-27T04:21:21.301Z,3.30
2023-03-27T04:31:48.937Z,2.42
2023-03-27T04:37:23.582Z,2.17
2023-03-27T04:42:45.987Z,1.85
2023-03-27T04:47:49.373Z,2.03
2023-03-27T04:52:58.822Z,4.30
2023-03-27T04:58:05.808Z,2.20
2023-03-27T05:03:10.910Z,1.95
2023-03-27T05:08:32.044Z,2.00
2023-03-27T05:13:35.217Z,5.43
2023-03-27T05:18:38.694Z,3.03
2023-03-27T05:23:44.698Z,3.50
2023-03-27T05:28:47.526Z,2.83
2023-03-27T05:33:52.892Z,1.92
2023-03-27T05:38:58.193Z,1.80
2023-03-27T05:44:12.510Z,2.00
2023-03-27T05:49:22.010Z,1.73
2023-03-27T05:54:30.864Z,2.08
2023-03-27T05:59:39.928Z,2.03
2023-03-27T06:05:18.840Z,1.85
2023-03-27T06:16:44.399Z,1.73
2023-03-27T06:22:16.239Z,1.65
2023-03-27T06:27:38.446Z,1.63
2023-03-27T06:32:51.289Z,1.63
2023-03-27T06:38:36.291Z,3.22
2023-03-27T06:44:02.201Z,3.75
2023-03-27T06:49:51.942Z,2.53
2023-03-27T06:55:14.819Z,2.10
2023-03-27T07:00:40.254Z,1.73
2023-03-27T07:06:01.817Z,1.55
2023-03-27T07:11:31.710Z,1.80
2023-03-27T07:35:42.571Z,1.90
2023-03-27T07:41:42.931Z,1.90
2023-03-27T07:48:04.489Z,2.13
2023-03-27T08:08:05.223Z,3.72
2023-03-27T08:20:28.445Z,2.08
2023-03-27T08:25:55.510Z,2.42
2023-03-27T08:31:12.676Z,2.38
2023-03-27T08:36:16.458Z,2.00
2023-03-27T08:41:30.061Z,3.95
2023-03-27T08:47:14.105Z,6.53
2023-03-27T08:52:36.532Z,4.00
2023-03-27T08:57:44.294Z,4.07
2023-03-27T09:03:36.171Z,6.43
2023-03-27T09:08:50.128Z,2.50
2023-03-27T09:13:56.600Z,4.40
2023-03-27T09:19:15.321Z,2.95
2023-03-27T09:24:31.817Z,2.60
2023-03-27T09:30:26.415Z,6.00
2023-03-27T09:35:35.860Z,3.70
2023-03-27T09:40:48.848Z,5.18
2023-03-27T09:45:56.351Z,3.50
2023-03-27T09:51:02.728Z,3.97
2023-03-27T10:01:30.650Z,3.10
2023-03-27T10:07:02.787Z,4.10
2023-03-27T10:12:27.518Z,2.70
2023-03-27T10:17:38.940Z,3.45
2023-03-27T10:22:54.997Z,2.00
2023-03-27T10:28:16.142Z,1.98
2023-03-27T10:33:43.782Z,3.75
2023-03-27T10:39:00.884Z,6.32
2023-03-27T10:44:26.241Z,2.10
2023-03-27T10:49:51.947Z,3.05
2023-03-27T10:55:20.256Z,7.03
2023-03-27T11:00:33.046Z,2.63
2023-03-27T11:05:49.308Z,8.10
2023-03-27T11:11:17.055Z,3.50
2023-03-27T11:16:32.240Z,4.78
2023-03-27T11:22:01.895Z,13.40
2023-03-27T11:27:56.155Z,6.65
2023-03-27T11:33:24.507Z,4.40
2023-03-27T11:38:37.560Z,4.20
2023-03-27T11:43:42.068Z,70.72
2023-03-27T11:49:21.706Z,44.60
2023-03-27T11:54:37.607Z,24.45
2023-03-27T11:59:54.326Z,28.30
2023-03-27T12:05:38.560Z,5.30
2023-03-27T12:10:43.707Z,5.38
2023-03-27T12:16:31.359Z,9.75
2023-03-27T12:21:46.815Z,7.82
2023-03-27T12:26:59.832Z,10.68
2023-03-27T12:32:40.269Z,6.00
2023-03-27T12:37:57.854Z,6.05
2023-03-27T12:43:06.275Z,4.80
2023-03-27T12:48:10.186Z,8.68
2023-03-27T12:53:25.765Z,6.95
2023-03-27T12:58:34.713Z,4.10
2023-03-27T13:04:33.473Z,3.45
2023-03-27T13:09:47.170Z,2.47
2023-03-27T13:15:15.722Z,10.48
2023-03-27T13:20:55.956Z,11.63
2023-03-27T13:26:25.048Z,8.27
2023-03-27T13:31:57.838Z,3.22
2023-03-27T13:37:36.732Z,5.40
2023-03-27T13:42:44.833Z,3.27
2023-03-27T13:47:51.586Z,4.80
2023-03-27T13:53:13.579Z,10.07
2023-03-27T13:59:09.958Z,4.40
2023-03-27T14:04:14.003Z,9.65
2023-03-27T14:09:38.724Z,5.03
2023-03-27T14:15:09.944Z,4.13
2023-03-27T14:20:23.367Z,5.07
2023-03-27T14:25:34.390Z,3.55
2023-03-27T14:30:56.685Z,10.15
2023-03-27T14:36:17.236Z,10.15
2023-03-27T14:41:26.378Z,5.45
2023-03-27T14:52:22.222Z,8.00
2023-03-27T14:57:44.929Z,6.38
2023-03-27T15:02:49.692Z,6.22
2023-03-27T15:07:54.927Z,15.45
2023-03-27T15:13:17.737Z,5.03
2023-03-27T15:18:33.344Z,4.50
2023-03-27T15:23:41.504Z,2.78
2023-03-27T15:28:53.717Z,7.13
2023-03-27T15:34:03.742Z,4.35
2023-03-27T15:39:10.182Z,6.30
2023-03-27T15:44:17.382Z,7.90
2023-03-27T15:49:21.689Z,2.80
2023-03-27T15:54:35.804Z,3.45
2023-03-27T15:59:52.870Z,3.33
2023-03-27T16:04:57.919Z,3.00
2023-03-27T16:10:03.086Z,7.05
2023-03-27T16:15:08.626Z,4.60
2023-03-27T16:20:12.862Z,7.10
2023-03-27T16:25:16.408Z,4.85
2023-03-27T16:30:41.468Z,5.60
2023-03-27T16:35:44.523Z,9.25
2023-03-27T16:40:47.202Z,3.85
2023-03-27T16:45:52.395Z,15.52
2023-03-27T16:50:54.929Z,6.80
2023-03-27T16:55:58.018Z,12.07
2023-03-27T17:01:00.821Z,17.88
2023-03-27T17:06:06.129Z,22.23
2023-03-27T17:11:13.183Z,27.10
2023-03-27T17:16:17.240Z,16.55
2023-03-27T17:21:20.037Z,18.37
2023-03-27T17:26:23.784Z,17.52
2023-03-27T17:31:30.875Z,33.33
2023-03-27T17:36:43.269Z,33.00
2023-03-27T17:41:51.123Z,42.97
2023-03-27T17:51:56.468Z,180.38
2023-03-27T17:56:59.326Z,125.18
2023-03-27T18:02:02.511Z,113.83
2023-03-27T18:07:05.502Z,130.98
2023-03-27T18:12:14.581Z,80.20
2023-03-27T18:17:21.542Z,454.05
2023-03-27T18:22:27.764Z,165.75
2023-03-27T18:27:30.775Z,138.13
2023-03-27T18:32:33.394Z,67.88
2023-03-27T18:37:37.180Z,44.50
2023-03-27T18:47:47.188Z,155.37
2023-03-27T18:52:50.634Z,125.40
2023-03-27T18:57:53.444Z,133.80
2023-03-27T19:02:57.177Z,109.22
2023-03-27T19:08:03.140Z,74.18
2023-03-27T19:13:06.197Z,52.45
2023-03-27T19:18:30.467Z,48.55
2023-03-27T19:23:49.366Z,33.28
2023-03-27T19:28:56.251Z,29.65
2023-03-27T19:34:02.353Z,16.42
2023-03-27T19:39:09.635Z,16.42
2023-03-27T19:44:20.185Z,16.10
2023-03-27T19:49:23.295Z,14.90
2023-03-27T19:54:35.061Z,38.08
2023-03-27T19:59:37.572Z,10.73
2023-03-27T20:04:40.268Z,11.13
2023-03-27T20:09:42.697Z,12.05
2023-03-27T20:14:51.341Z,8.00
2023-03-27T20:20:06.446Z,7.00
2023-03-27T20:25:09.161Z,7.10
2023-03-27T20:30:14.902Z,6.72
2023-03-27T20:35:24.413Z,7.07
2023-03-27T20:40:27.602Z,7.80
2023-03-27T20:45:31.371Z,6.50
2023-03-27T20:50:35.924Z,6.93
2023-03-27T20:55:49.595Z,5.80
2023-03-27T21:01:05.231Z,3.92
2023-03-27T21:06:09.964Z,4.50
2023-03-27T21:11:15.435Z,4.10
2023-03-27T21:16:18.224Z,3.20
2023-03-27T21:21:21.024Z,3.47
2023-03-27T21:26:23.833Z,3.00
2023-03-27T21:31:27.772Z,3.30
2023-03-27T21:36:30.673Z,5.82
2023-03-27T21:41:33.412Z,6.40
2023-03-27T21:46:36.345Z,4.50
2023-03-27T21:51:39.860Z,5.63
2023-03-27T21:56:42.542Z,5.00
2023-03-27T22:01:45.742Z,3.38
2023-03-27T22:06:48.639Z,4.83
2023-03-27T22:11:52.137Z,5.63
2023-03-27T22:16:54.564Z,3.97
2023-03-27T22:27:01.195Z,3.78
2023-03-27T22:32:04.291Z,3.78
2023-03-27T22:37:07.098Z,4.60
2023-03-27T22:42:09.720Z,3.40
2023-03-27T22:47:12.548Z,3.03
2023-03-27T22:52:16.455Z,3.63
2023-03-27T22:57:19.339Z,4.30
2023-03-27T23:02:22.303Z,2.90
2023-03-27T23:07:33.107Z,2.80
2023-03-27T23:12:35.823Z,3.17
2023-03-27T23:17:41.555Z,3.00
2023-03-27T23:22:44.244Z,2.60
2023-03-27T23:27:47.221Z,2.47
2023-03-27T23:32:50.196Z,3.45
2023-03-27T23:37:52.957Z,3.10
2023-03-27T23:42:55.606Z,3.90
2023-03-27T23:47:58.467Z,3.20
2023-03-27T23:53:01.215Z,3.40
2023-03-27T23:58:07.750Z,3.22
